Saturday, August 30, 2014
02:15 UTC
  |  Log In   |  Register Free
Airport Search:

Visalia Municipal Airport
(KVIS)

Visalia Municipal Airport Diagram
No Airport Diagram Available

FAA data valid effective July 24, 2014 until September 18, 2014 (unless otherwise noted).

 
 
 
 
 
 
 
 
 
 
 
 
 
 

Current Aviation Weather for Visalia Municipal Airport (KVIS)

The most recent METAR observation for KVIS was updated at: 0115 UTC
METAR Summary (Translated METAR)
KVIS
300115Z AUTO 30007KT 10SM CLR 34/12 A2979 RMK AO1
KHJO
(11.4 nm SW from KVIS)
300053Z AUTO 33008KT 10SM CLR 37/03 A2979 RMK AO2 SLP087 T03670028 $
TAF Summary (Translated TAF)
KVIS
291725Z 2918/3018 31008KT P6SM FEW200
  Airport Weather Conditions for KVIS

 Current Weather at VIS
90° F
Fair
Northwest winds at 6.9 mph
VIS NOAA Radar

Pressure: 29.79 in
Humidity: 26%
Wind: Northwest at 6.9 MPH (6 KT)
Dew Point: 50.0°F
Visibility: 10.00 mi


Airport Weather Forecast for KVIS

Translated METAR and TAF for KVIS
Translated METAR for KVIS (0209 UTC 30 August 2014)
found at http://aviationweather.gov/adds/metars/
 
METAR text: KVIS 300155Z AUTO 31006KT 10SM CLR 32/10 A2979 RMK AO1
Conditions at: KVIS (VISALIA MUNI , CA, US) observed 0155 UTC 30 August 2014
Temperature: 32.0°C (90°F)
Dewpoint: 10.0°C (50°F) [RH = 26%]
Pressure (altimeter): 29.79 inches Hg (1008.9 mb)
Winds: from the NW (310 degrees) at 7 MPH (6 knots; 3.1 m/s)
Visibility: 10 or more miles (16+ km)
Ceiling: at least 12,000 feet AGL
Clouds: sky clear below 12,000 feet AGL
Weather: automated observation with no human augmentation;
there may or may not be significant weather present at this time
Translated TAF for KVIS
Forecast for: KVIS (VISALIA MUNI , CA, US)
TAF Text: KVIS 292320Z 3000/3024 32008KT P6SM SCT200
Forecast period: 0000 to 0300 UTC 30 August 2014
Forecast type: FROM: standard forecast or significant change
Winds: from the NW (320 degrees) at 9 MPH (8 knots; 4.2 m/s)
Visibility: 6 or more miles (10+ km)
Clouds: scattered clouds at 20000 feet AGL
Weather: no significant weather forecast for this period
TAF Text: FM300300 VRB03KT P6SM FEW200
Forecast period: 0300 to 1900 UTC 30 August 2014
Forecast type: FROM: standard forecast or significant change
Winds: variable direction winds at 3 MPH (3 knots; 1.6 m/s)
Visibility: 6 or more miles (10+ km)
Clouds: few clouds at 20000 feet AGL
Weather: no significant weather forecast for this period
TAF Text: FM301900 31009KT P6SM FEW200
Forecast period: 1900 UTC 30 August 2014 to 0000 UTC 31 August 2014
Forecast type: FROM: standard forecast or significant change
Winds: from the NW (310 degrees) at 10 MPH (9 knots; 4.7 m/s)
Visibility: 6 or more miles (10+ km)
Clouds: few clouds at 20000 feet AGL
Weather: no significant weather forecast for this period

Find All Airport Services Find A Hotel Find A Rental Car Find A Golf Course Find A Restaurant $100 Hamburger



FBO's on the Field
FBO Company Facility Photos Services Transportation Aviation Fuel Prices: Prices include tax
Catering Weather Repair Courtesy Rental Type 100LL JetA JetA+ MOGAS 8087
 
Add another FBO Facility Photos Catering Weather Repair Courtesy Rental Type 100LL JetA JetA+ MOGAS 8087
Services Transportation Aviation Fuel Prices: Prices include tax
There are no FBO's currently reporting fuel at VIS. List your FBO now


GlobalAir.com Airport Resource Center model-print
model-print
model-print
model-print